sensor_id;sensor_type;location;lat;lon;timestamp;temperature;humidity
16283;DHT22;8249;48.708;9.030;2022-12-10T00:01:28;1.30;99.90
16283;DHT22;8249;48.708;9.030;2022-12-10T00:03:55;1.40;99.90
16283;DHT22;8249;48.708;9.030;2022-12-10T00:06:25;1.40;99.90
16283;DHT22;8249;48.708;9.030;2022-12-10T00:08:53;1.30;99.90
16283;DHT22;8249;48.708;9.030;2022-12-10T00:11:23;1.30;99.90
16283;DHT22;8249;48.708;9.030;2022-12-10T00:13:51;1.40;99.90
16283;DHT22;8249;48.708;9.030;2022-12-10T00:16:20;1.40;99.90
16283;DHT22;8249;48.708;9.030;2022-12-10T00:18:48;1.40;99.90
16283;DHT22;8249;48.708;9.030;2022-12-10T00:21:18;1.30;99.90
16283;DHT22;8249;48.708;9.030;2022-12-10T00:23:45;1.30;99.90
16283;DHT22;8249;48.708;9.030;2022-12-10T00:26:14;1.40;99.90
16283;DHT22;8249;48.708;9.030;2022-12-10T00:28:45;1.40;99.90
16283;DHT22;8249;48.708;9.030;2022-12-10T00:31:15;1.30;99.90
16283;DHT22;8249;48.708;9.030;2022-12-10T00:33:43;1.40;99.90
16283;DHT22;8249;48.708;9.030;2022-12-10T00:36:11;1.30;99.90
16283;DHT22;8249;48.708;9.030;2022-12-10T00:38:39;1.40;99.90
16283;DHT22;8249;48.708;9.030;2022-12-10T00:41:06;1.30;99.90
16283;DHT22;8249;48.708;9.030;2022-12-10T00:43:34;1.30;99.90
16283;DHT22;8249;48.708;9.030;2022-12-10T00:46:02;1.30;99.90
16283;DHT22;8249;48.708;9.030;2022-12-10T00:48:29;1.30;99.90
16283;DHT22;8249;48.708;9.030;2022-12-10T00:50:58;1.30;99.90
16283;DHT22;8249;48.708;9.030;2022-12-10T00:53:26;1.30;99.90
16283;DHT22;8249;48.708;9.030;2022-12-10T00:55:53;1.30;99.90
16283;DHT22;8249;48.708;9.030;2022-12-10T00:58:21;1.30;99.90
16283;DHT22;8249;48.708;9.030;2022-12-10T01:00:48;1.30;99.90
16283;DHT22;8249;48.708;9.030;2022-12-10T01:03:17;1.30;99.90
16283;DHT22;8249;48.708;9.030;2022-12-10T01:05:44;1.30;99.90
16283;DHT22;8249;48.708;9.030;2022-12-10T01:08:12;1.30;99.90
16283;DHT22;8249;48.708;9.030;2022-12-10T01:10:39;1.30;99.90
16283;DHT22;8249;48.708;9.030;2022-12-10T01:13:06;1.30;99.90
16283;DHT22;8249;48.708;9.030;2022-12-10T01:15:37;1.30;99.90
16283;DHT22;8249;48.708;9.030;2022-12-10T01:18:04;1.30;99.90
16283;DHT22;8249;48.708;9.030;2022-12-10T01:20:35;1.30;99.90
16283;DHT22;8249;48.708;9.030;2022-12-10T01:23:03;1.30;99.90
16283;DHT22;8249;48.708;9.030;2022-12-10T01:25:31;1.30;99.90
16283;DHT22;8249;48.708;9.030;2022-12-10T01:27:59;1.30;99.90
16283;DHT22;8249;48.708;9.030;2022-12-10T01:30:26;1.30;99.90
16283;DHT22;8249;48.708;9.030;2022-12-10T01:32:53;1.30;99.90
16283;DHT22;8249;48.708;9.030;2022-12-10T01:35:20;1.30;99.90
16283;DHT22;8249;48.708;9.030;2022-12-10T01:37:48;1.30;99.90
16283;DHT22;8249;48.708;9.030;2022-12-10T01:40:15;1.30;99.90
16283;DHT22;8249;48.708;9.030;2022-12-10T01:42:44;1.30;99.90
16283;DHT22;8249;48.708;9.030;2022-12-10T01:45:13;1.30;99.90
16283;DHT22;8249;48.708;9.030;2022-12-10T01:47:40;1.30;99.90
16283;DHT22;8249;48.708;9.030;2022-12-10T01:50:08;1.30;99.90
16283;DHT22;8249;48.708;9.030;2022-12-10T01:52:37;1.30;99.90
16283;DHT22;8249;48.708;9.030;2022-12-10T01:55:39;1.30;99.90
16283;DHT22;8249;48.708;9.030;2022-12-10T01:58:06;1.30;99.90
16283;DHT22;8249;48.708;9.030;2022-12-10T02:00:34;1.30;99.90
16283;DHT22;8249;48.708;9.030;2022-12-10T02:03:10;1.30;99.90
16283;DHT22;8249;48.708;9.030;2022-12-10T02:05:42;1.30;99.90
16283;DHT22;8249;48.708;9.030;2022-12-10T02:08:16;1.30;99.90
16283;DHT22;8249;48.708;9.030;2022-12-10T02:10:54;1.30;99.90
16283;DHT22;8249;48.708;9.030;2022-12-10T02:13:28;1.30;99.90
16283;DHT22;8249;48.708;9.030;2022-12-10T02:16:02;1.30;99.90
16283;DHT22;8249;48.708;9.030;2022-12-10T02:18:35;1.30;99.90
16283;DHT22;8249;48.708;9.030;2022-12-10T02:21:06;1.30;99.90
16283;DHT22;8249;48.708;9.030;2022-12-10T02:23:37;1.30;99.90
16283;DHT22;8249;48.708;9.030;2022-12-10T02:26:11;1.30;99.90
16283;DHT22;8249;48.708;9.030;2022-12-10T02:28:44;1.30;99.90
16283;DHT22;8249;48.708;9.030;2022-12-10T02:31:19;1.30;99.90
16283;DHT22;8249;48.708;9.030;2022-12-10T02:33:51;1.30;99.90
16283;DHT22;8249;48.708;9.030;2022-12-10T02:36:20;1.30;99.90
16283;DHT22;8249;48.708;9.030;2022-12-10T02:38:50;1.20;99.90
16283;DHT22;8249;48.708;9.030;2022-12-10T02:41:23;1.20;99.90
16283;DHT22;8249;48.708;9.030;2022-12-10T02:43:54;1.30;99.90
16283;DHT22;8249;48.708;9.030;2022-12-10T02:46:24;1.30;99.90
16283;DHT22;8249;48.708;9.030;2022-12-10T02:48:54;1.30;99.90
16283;DHT22;8249;48.708;9.030;2022-12-10T02:51:22;1.30;99.90
16283;DHT22;8249;48.708;9.030;2022-12-10T02:53:58;1.30;99.90
16283;DHT22;8249;48.708;9.030;2022-12-10T02:56:30;1.20;99.90
16283;DHT22;8249;48.708;9.030;2022-12-10T02:59:06;1.20;99.90
16283;DHT22;8249;48.708;9.030;2022-12-10T03:01:44;1.20;99.90
16283;DHT22;8249;48.708;9.030;2022-12-10T03:04:20;1.20;99.90
16283;DHT22;8249;48.708;9.030;2022-12-10T03:06:52;1.20;99.90
16283;DHT22;8249;48.708;9.030;2022-12-10T03:09:22;1.20;99.90
16283;DHT22;8249;48.708;9.030;2022-12-10T03:11:55;1.20;99.90
16283;DHT22;8249;48.708;9.030;2022-12-10T03:14:27;1.20;99.90
16283;DHT22;8249;48.708;9.030;2022-12-10T03:16:58;1.20;99.90
16283;DHT22;8249;48.708;9.030;2022-12-10T03:19:30;1.20;99.90
16283;DHT22;8249;48.708;9.030;2022-12-10T03:22:01;1.20;99.90
16283;DHT22;8249;48.708;9.030;2022-12-10T03:24:30;1.20;99.90
16283;DHT22;8249;48.708;9.030;2022-12-10T03:26:59;1.20;99.90
16283;DHT22;8249;48.708;9.030;2022-12-10T03:29:33;1.20;99.90
16283;DHT22;8249;48.708;9.030;2022-12-10T03:32:03;1.20;99.90
16283;DHT22;8249;48.708;9.030;2022-12-10T03:34:31;1.20;99.90
16283;DHT22;8249;48.708;9.030;2022-12-10T03:36:58;1.20;99.90
16283;DHT22;8249;48.708;9.030;2022-12-10T03:39:26;1.20;99.90
16283;DHT22;8249;48.708;9.030;2022-12-10T03:41:54;1.20;99.90
16283;DHT22;8249;48.708;9.030;2022-12-10T03:44:28;1.20;99.90
16283;DHT22;8249;48.708;9.030;2022-12-10T03:46:55;1.20;99.90
16283;DHT22;8249;48.708;9.030;2022-12-10T03:49:24;1.20;99.90
16283;DHT22;8249;48.708;9.030;2022-12-10T03:51:51;1.20;99.90
16283;DHT22;8249;48.708;9.030;2022-12-10T03:54:19;1.20;99.90
16283;DHT22;8249;48.708;9.030;2022-12-10T03:56:46;1.10;99.90
16283;DHT22;8249;48.708;9.030;2022-12-10T03:59:13;1.20;99.90
16283;DHT22;8249;48.708;9.030;2022-12-10T04:01:41;1.20;99.90
16283;DHT22;8249;48.708;9.030;2022-12-10T04:04:09;1.20;99.90
16283;DHT22;8249;48.708;9.030;2022-12-10T04:06:38;1.20;99.90
16283;DHT22;8249;48.708;9.030;2022-12-10T04:09:06;1.20;99.90
16283;DHT22;8249;48.708;9.030;2022-12-10T04:11:33;1.20;99.90
16283;DHT22;8249;48.708;9.030;2022-12-10T04:14:00;1.20;99.90
16283;DHT22;8249;48.708;9.030;2022-12-10T04:16:45;1.20;99.90
16283;DHT22;8249;48.708;9.030;2022-12-10T04:19:14;1.20;99.90
16283;DHT22;8249;48.708;9.030;2022-12-10T04:21:44;1.20;99.90
16283;DHT22;8249;48.708;9.030;2022-12-10T04:24:31;1.30;99.90
16283;DHT22;8249;48.708;9.030;2022-12-10T04:27:18;1.20;99.90
16283;DHT22;8249;48.708;9.030;2022-12-10T04:29:45;1.20;99.90
16283;DHT22;8249;48.708;9.030;2022-12-10T04:32:12;1.20;99.90
16283;DHT22;8249;48.708;9.030;2022-12-10T04:34:39;1.20;99.90
16283;DHT22;8249;48.708;9.030;2022-12-10T04:37:08;1.20;99.90
16283;DHT22;8249;48.708;9.030;2022-12-10T04:39:36;1.20;99.90
16283;DHT22;8249;48.708;9.030;2022-12-10T04:42:04;1.10;99.90
16283;DHT22;8249;48.708;9.030;2022-12-10T04:44:31;1.10;99.90
16283;DHT22;8249;48.708;9.030;2022-12-10T04:46:58;1.10;99.90
16283;DHT22;8249;48.708;9.030;2022-12-10T04:49:25;1.10;99.90
16283;DHT22;8249;48.708;9.030;2022-12-10T04:51:52;1.10;99.90
16283;DHT22;8249;48.708;9.030;2022-12-10T04:54:23;1.10;99.90
16283;DHT22;8249;48.708;9.030;2022-12-10T04:56:50;1.10;99.90
16283;DHT22;8249;48.708;9.030;2022-12-10T04:59:18;1.10;99.90
16283;DHT22;8249;48.708;9.030;2022-12-10T05:01:45;1.10;99.90
16283;DHT22;8249;48.708;9.030;2022-12-10T05:04:14;1.10;99.90
16283;DHT22;8249;48.708;9.030;2022-12-10T05:06:41;1.10;99.90
16283;DHT22;8249;48.708;9.030;2022-12-10T05:09:10;1.10;99.90
16283;DHT22;8249;48.708;9.030;2022-12-10T05:11:38;1.10;99.90
16283;DHT22;8249;48.708;9.030;2022-12-10T05:14:06;1.10;99.90
16283;DHT22;8249;48.708;9.030;2022-12-10T05:16:33;1.10;99.90
16283;DHT22;8249;48.708;9.030;2022-12-10T05:19:00;1.10;99.90
16283;DHT22;8249;48.708;9.030;2022-12-10T05:21:29;1.00;99.90
16283;DHT22;8249;48.708;9.030;2022-12-10T05:24:17;1.00;99.90
16283;DHT22;8249;48.708;9.030;2022-12-10T05:26:45;1.00;99.90
16283;DHT22;8249;48.708;9.030;2022-12-10T05:29:16;1.00;99.90
16283;DHT22;8249;48.708;9.030;2022-12-10T05:31:44;1.00;99.90
16283;DHT22;8249;48.708;9.030;2022-12-10T05:34:11;1.00;99.90
16283;DHT22;8249;48.708;9.030;2022-12-10T05:36:38;1.00;99.90
16283;DHT22;8249;48.708;9.030;2022-12-10T05:39:07;1.00;99.90
16283;DHT22;8249;48.708;9.030;2022-12-10T05:41:36;1.00;99.90
16283;DHT22;8249;48.708;9.030;2022-12-10T05:44:05;1.00;99.90
16283;DHT22;8249;48.708;9.030;2022-12-10T05:46:34;0.90;99.90
16283;DHT22;8249;48.708;9.030;2022-12-10T05:49:02;1.00;99.90
16283;DHT22;8249;48.708;9.030;2022-12-10T05:51:31;1.00;99.90
16283;DHT22;8249;48.708;9.030;2022-12-10T05:53:59;1.00;99.90
16283;DHT22;8249;48.708;9.030;2022-12-10T05:56:27;0.90;99.90
16283;DHT22;8249;48.708;9.030;2022-12-10T05:58:57;1.00;99.90
16283;DHT22;8249;48.708;9.030;2022-12-10T06:01:27;0.90;99.90
16283;DHT22;8249;48.708;9.030;2022-12-10T06:03:54;0.90;99.90
16283;DHT22;8249;48.708;9.030;2022-12-10T06:06:22;0.90;99.90
16283;DHT22;8249;48.708;9.030;2022-12-10T06:08:50;0.90;99.90
16283;DHT22;8249;48.708;9.030;2022-12-10T06:11:18;0.90;99.90
16283;DHT22;8249;48.708;9.030;2022-12-10T06:13:45;1.00;99.90
16283;DHT22;8249;48.708;9.030;2022-12-10T06:16:13;1.10;99.90
16283;DHT22;8249;48.708;9.030;2022-12-10T06:18:43;1.10;99.90
16283;DHT22;8249;48.708;9.030;2022-12-10T06:21:11;1.10;99.90
16283;DHT22;8249;48.708;9.030;2022-12-10T06:23:39;1.20;99.90
16283;DHT22;8249;48.708;9.030;2022-12-10T06:26:07;1.20;99.90
16283;DHT22;8249;48.708;9.030;2022-12-10T06:28:34;1.30;99.90
16283;DHT22;8249;48.708;9.030;2022-12-10T06:31:01;1.20;99.90
16283;DHT22;8249;48.708;9.030;2022-12-10T06:33:29;1.10;99.90
16283;DHT22;8249;48.708;9.030;2022-12-10T06:35:57;1.00;99.90
16283;DHT22;8249;48.708;9.030;2022-12-10T06:38:25;1.00;99.90
16283;DHT22;8249;48.708;9.030;2022-12-10T06:40:52;1.00;99.90
16283;DHT22;8249;48.708;9.030;2022-12-10T06:43:19;0.90;99.90
16283;DHT22;8249;48.708;9.030;2022-12-10T06:45:45;0.90;99.90
16283;DHT22;8249;48.708;9.030;2022-12-10T06:48:12;0.90;99.90
16283;DHT22;8249;48.708;9.030;2022-12-10T06:50:39;0.90;99.90
16283;DHT22;8249;48.708;9.030;2022-12-10T06:53:08;0.80;99.90
16283;DHT22;8249;48.708;9.030;2022-12-10T06:55:36;0.80;99.90
16283;DHT22;8249;48.708;9.030;2022-12-10T06:58:04;0.80;99.90
16283;DHT22;8249;48.708;9.030;2022-12-10T07:00:31;0.80;99.90
16283;DHT22;8249;48.708;9.030;2022-12-10T07:02:58;0.80;99.90
16283;DHT22;8249;48.708;9.030;2022-12-10T07:05:25;0.80;99.90
16283;DHT22;8249;48.708;9.030;2022-12-10T07:07:52;0.80;99.90
16283;DHT22;8249;48.708;9.030;2022-12-10T07:10:20;0.80;99.90
16283;DHT22;8249;48.708;9.030;2022-12-10T07:12:47;0.80;99.90
16283;DHT22;8249;48.708;9.030;2022-12-10T07:15:14;0.70;99.90
16283;DHT22;8249;48.708;9.030;2022-12-10T07:17:41;0.70;99.90
16283;DHT22;8249;48.708;9.030;2022-12-10T07:20:09;0.70;99.90
16283;DHT22;8249;48.708;9.030;2022-12-10T07:22:37;0.70;99.90
16283;DHT22;8249;48.708;9.030;2022-12-10T07:25:04;0.80;99.90
16283;DHT22;8249;48.708;9.030;2022-12-10T07:27:33;0.70;99.90
16283;DHT22;8249;48.708;9.030;2022-12-10T07:30:00;0.80;99.90
16283;DHT22;8249;48.708;9.030;2022-12-10T07:32:27;0.80;99.90
16283;DHT22;8249;48.708;9.030;2022-12-10T07:34:54;0.80;99.90
16283;DHT22;8249;48.708;9.030;2022-12-10T07:37:21;0.80;99.90
16283;DHT22;8249;48.708;9.030;2022-12-10T07:39:48;0.80;99.90
16283;DHT22;8249;48.708;9.030;2022-12-10T07:42:15;0.80;99.90
16283;DHT22;8249;48.708;9.030;2022-12-10T07:44:43;0.80;99.90
16283;DHT22;8249;48.708;9.030;2022-12-10T07:47:10;0.80;99.90
16283;DHT22;8249;48.708;9.030;2022-12-10T07:49:38;0.80;99.90
16283;DHT22;8249;48.708;9.030;2022-12-10T07:52:05;0.80;99.90
16283;DHT22;8249;48.708;9.030;2022-12-10T07:54:32;0.80;99.90
16283;DHT22;8249;48.708;9.030;2022-12-10T07:56:59;0.80;99.90
16283;DHT22;8249;48.708;9.030;2022-12-10T07:59:26;0.90;99.90
16283;DHT22;8249;48.708;9.030;2022-12-10T08:01:54;0.90;99.90
16283;DHT22;8249;48.708;9.030;2022-12-10T08:04:21;0.90;99.90
16283;DHT22;8249;48.708;9.030;2022-12-10T08:06:48;0.90;99.90
16283;DHT22;8249;48.708;9.030;2022-12-10T08:09:15;1.00;99.90
16283;DHT22;8249;48.708;9.030;2022-12-10T08:11:42;1.00;99.90
16283;DHT22;8249;48.708;9.030;2022-12-10T08:14:10;1.10;99.90
16283;DHT22;8249;48.708;9.030;2022-12-10T08:16:37;1.10;99.90
16283;DHT22;8249;48.708;9.030;2022-12-10T08:19:05;1.20;99.90
16283;DHT22;8249;48.708;9.030;2022-12-10T08:21:33;1.10;99.90
16283;DHT22;8249;48.708;9.030;2022-12-10T08:24:00;1.20;99.90
16283;DHT22;8249;48.708;9.030;2022-12-10T08:26:29;1.20;99.90
16283;DHT22;8249;48.708;9.030;2022-12-10T08:28:57;1.20;99.90
16283;DHT22;8249;48.708;9.030;2022-12-10T08:31:25;1.20;99.90
16283;DHT22;8249;48.708;9.030;2022-12-10T08:33:53;1.30;99.90
16283;DHT22;8249;48.708;9.030;2022-12-10T08:36:22;1.30;99.90
16283;DHT22;8249;48.708;9.030;2022-12-10T08:38:49;1.40;99.90
16283;DHT22;8249;48.708;9.030;2022-12-10T08:41:17;1.40;99.90
16283;DHT22;8249;48.708;9.030;2022-12-10T08:43:45;1.40;99.90
16283;DHT22;8249;48.708;9.030;2022-12-10T08:46:13;1.40;99.90
16283;DHT22;8249;48.708;9.030;2022-12-10T08:48:40;1.40;99.90
16283;DHT22;8249;48.708;9.030;2022-12-10T08:51:08;1.30;99.90
16283;DHT22;8249;48.708;9.030;2022-12-10T08:53:36;1.40;99.90
16283;DHT22;8249;48.708;9.030;2022-12-10T08:56:04;1.40;99.90
16283;DHT22;8249;48.708;9.030;2022-12-10T08:58:31;1.50;99.90
16283;DHT22;8249;48.708;9.030;2022-12-10T09:00:58;1.50;99.90
16283;DHT22;8249;48.708;9.030;2022-12-10T09:03:27;1.50;99.90
16283;DHT22;8249;48.708;9.030;2022-12-10T09:05:54;1.40;99.90
16283;DHT22;8249;48.708;9.030;2022-12-10T09:08:20;1.40;99.90
16283;DHT22;8249;48.708;9.030;2022-12-10T09:10:49;1.50;99.90
16283;DHT22;8249;48.708;9.030;2022-12-10T09:13:16;1.50;99.90
16283;DHT22;8249;48.708;9.030;2022-12-10T09:15:49;1.40;99.90
16283;DHT22;8249;48.708;9.030;2022-12-10T09:18:18;1.50;99.90
16283;DHT22;8249;48.708;9.030;2022-12-10T09:20:45;1.50;99.90
16283;DHT22;8249;48.708;9.030;2022-12-10T09:23:12;1.50;99.90
16283;DHT22;8249;48.708;9.030;2022-12-10T09:25:39;1.50;99.90
16283;DHT22;8249;48.708;9.030;2022-12-10T09:28:08;1.50;99.90
16283;DHT22;8249;48.708;9.030;2022-12-10T09:30:35;1.50;99.90
16283;DHT22;8249;48.708;9.030;2022-12-10T09:33:03;1.50;99.90
16283;DHT22;8249;48.708;9.030;2022-12-10T09:35:30;1.50;99.90
16283;DHT22;8249;48.708;9.030;2022-12-10T09:37:57;1.60;99.90
16283;DHT22;8249;48.708;9.030;2022-12-10T09:40:29;1.60;99.90
16283;DHT22;8249;48.708;9.030;2022-12-10T09:43:02;1.60;99.90
16283;DHT22;8249;48.708;9.030;2022-12-10T09:45:36;1.70;99.90
16283;DHT22;8249;48.708;9.030;2022-12-10T09:48:15;1.80;99.90
16283;DHT22;8249;48.708;9.030;2022-12-10T09:50:49;1.80;99.90
16283;DHT22;8249;48.708;9.030;2022-12-10T09:53:18;1.80;99.90
16283;DHT22;8249;48.708;9.030;2022-12-10T09:55:47;1.80;99.90
16283;DHT22;8249;48.708;9.030;2022-12-10T09:58:17;1.80;99.90
16283;DHT22;8249;48.708;9.030;2022-12-10T10:00:48;1.80;99.90
16283;DHT22;8249;48.708;9.030;2022-12-10T10:03:16;1.80;99.90
16283;DHT22;8249;48.708;9.030;2022-12-10T10:05:46;1.80;99.90
16283;DHT22;8249;48.708;9.030;2022-12-10T10:08:27;1.80;99.90
16283;DHT22;8249;48.708;9.030;2022-12-10T10:10:56;1.80;99.90
16283;DHT22;8249;48.708;9.030;2022-12-10T10:13:30;1.80;99.90
16283;DHT22;8249;48.708;9.030;2022-12-10T10:16:16;1.80;99.90
16283;DHT22;8249;48.708;9.030;2022-12-10T10:18:46;1.90;99.90
16283;DHT22;8249;48.708;9.030;2022-12-10T10:21:20;1.90;99.90
16283;DHT22;8249;48.708;9.030;2022-12-10T10:23:48;1.90;99.90
16283;DHT22;8249;48.708;9.030;2022-12-10T10:26:16;1.90;99.90
16283;DHT22;8249;48.708;9.030;2022-12-10T10:28:44;1.90;99.90
16283;DHT22;8249;48.708;9.030;2022-12-10T10:31:19;2.00;99.90
16283;DHT22;8249;48.708;9.030;2022-12-10T10:33:52;2.00;99.90
16283;DHT22;8249;48.708;9.030;2022-12-10T10:36:28;2.00;99.90
16283;DHT22;8249;48.708;9.030;2022-12-10T10:38:56;2.10;99.90
16283;DHT22;8249;48.708;9.030;2022-12-10T10:41:24;2.10;99.90
16283;DHT22;8249;48.708;9.030;2022-12-10T10:43:59;2.10;99.90
16283;DHT22;8249;48.708;9.030;2022-12-10T10:46:34;2.20;99.90
16283;DHT22;8249;48.708;9.030;2022-12-10T10:49:24;2.30;99.90
16283;DHT22;8249;48.708;9.030;2022-12-10T10:51:52;2.30;99.90
16283;DHT22;8249;48.708;9.030;2022-12-10T10:54:34;2.50;99.90
16283;DHT22;8249;48.708;9.030;2022-12-10T10:57:10;2.50;99.90
16283;DHT22;8249;48.708;9.030;2022-12-10T10:59:39;2.50;99.90
16283;DHT22;8249;48.708;9.030;2022-12-10T11:02:18;2.50;99.90
16283;DHT22;8249;48.708;9.030;2022-12-10T11:04:47;2.60;99.90
16283;DHT22;8249;48.708;9.030;2022-12-10T11:07:21;2.60;99.90
16283;DHT22;8249;48.708;9.030;2022-12-10T11:09:49;2.50;99.90
16283;DHT22;8249;48.708;9.030;2022-12-10T11:12:35;2.50;99.90
16283;DHT22;8249;48.708;9.030;2022-12-10T11:15:28;2.60;99.90
16283;DHT22;8249;48.708;9.030;2022-12-10T11:17:57;2.60;99.90
16283;DHT22;8249;48.708;9.030;2022-12-10T11:20:27;2.70;99.90
16283;DHT22;8249;48.708;9.030;2022-12-10T11:22:56;2.60;99.90
16283;DHT22;8249;48.708;9.030;2022-12-10T11:25:35;2.60;99.90
16283;DHT22;8249;48.708;9.030;2022-12-10T11:28:16;2.60;99.90
16283;DHT22;8249;48.708;9.030;2022-12-10T11:30:53;2.60;99.90
16283;DHT22;8249;48.708;9.030;2022-12-10T11:33:34;2.60;99.90
16283;DHT22;8249;48.708;9.030;2022-12-10T11:36:21;2.50;99.90
16283;DHT22;8249;48.708;9.030;2022-12-10T11:39:01;2.50;99.90
16283;DHT22;8249;48.708;9.030;2022-12-10T11:41:36;2.60;99.90
16283;DHT22;8249;48.708;9.030;2022-12-10T11:44:16;2.50;99.90
16283;DHT22;8249;48.708;9.030;2022-12-10T11:47:10;2.60;99.90
16283;DHT22;8249;48.708;9.030;2022-12-10T11:49:55;2.70;99.90
16283;DHT22;8249;48.708;9.030;2022-12-10T11:52:38;2.80;99.90
16283;DHT22;8249;48.708;9.030;2022-12-10T11:55:17;2.80;99.90
16283;DHT22;8249;48.708;9.030;2022-12-10T11:57:52;2.70;99.90
16283;DHT22;8249;48.708;9.030;2022-12-10T12:00:36;2.80;99.90
16283;DHT22;8249;48.708;9.030;2022-12-10T12:03:24;2.70;99.90
16283;DHT22;8249;48.708;9.030;2022-12-10T12:06:17;2.80;99.90
16283;DHT22;8249;48.708;9.030;2022-12-10T12:08:51;2.90;99.90
16283;DHT22;8249;48.708;9.030;2022-12-10T12:11:30;2.90;99.90
16283;DHT22;8249;48.708;9.030;2022-12-10T12:14:06;2.90;99.90
16283;DHT22;8249;48.708;9.030;2022-12-10T12:16:39;2.90;99.90
16283;DHT22;8249;48.708;9.030;2022-12-10T12:19:13;2.90;99.90
16283;DHT22;8249;48.708;9.030;2022-12-10T12:21:44;2.90;99.90
16283;DHT22;8249;48.708;9.030;2022-12-10T12:24:17;2.80;99.90
16283;DHT22;8249;48.708;9.030;2022-12-10T12:26:49;2.90;99.90
16283;DHT22;8249;48.708;9.030;2022-12-10T12:29:20;2.80;99.90
16283;DHT22;8249;48.708;9.030;2022-12-10T12:31:56;2.80;99.90
16283;DHT22;8249;48.708;9.030;2022-12-10T12:34:29;2.70;99.90
16283;DHT22;8249;48.708;9.030;2022-12-10T12:37:04;2.70;99.90
16283;DHT22;8249;48.708;9.030;2022-12-10T12:39:38;2.80;99.90
16283;DHT22;8249;48.708;9.030;2022-12-10T12:42:16;2.70;99.90
16283;DHT22;8249;48.708;9.030;2022-12-10T12:44:57;2.80;99.90
16283;DHT22;8249;48.708;9.030;2022-12-10T12:47:34;2.70;99.90
16283;DHT22;8249;48.708;9.030;2022-12-10T12:50:04;2.70;99.90
16283;DHT22;8249;48.708;9.030;2022-12-10T12:52:40;2.70;99.90
16283;DHT22;8249;48.708;9.030;2022-12-10T12:55:16;2.70;99.90
16283;DHT22;8249;48.708;9.030;2022-12-10T12:57:48;2.70;99.90
16283;DHT22;8249;48.708;9.030;2022-12-10T13:00:19;2.60;99.90
16283;DHT22;8249;48.708;9.030;2022-12-10T13:02:56;2.60;99.90
16283;DHT22;8249;48.708;9.030;2022-12-10T13:05:28;2.70;99.90
16283;DHT22;8249;48.708;9.030;2022-12-10T13:08:25;2.70;99.90
16283;DHT22;8249;48.708;9.030;2022-12-10T13:10:58;2.70;99.90
16283;DHT22;8249;48.708;9.030;2022-12-10T13:13:30;2.60;99.90
16283;DHT22;8249;48.708;9.030;2022-12-10T13:19:16;2.50;99.90
16283;DHT22;8249;48.708;9.030;2022-12-10T13:21:59;2.40;99.90
16283;DHT22;8249;48.708;9.030;2022-12-10T13:27:32;2.30;99.90
16283;DHT22;8249;48.708;9.030;2022-12-10T13:30:03;2.30;99.90
16283;DHT22;8249;48.708;9.030;2022-12-10T13:32:45;2.40;99.90
16283;DHT22;8249;48.708;9.030;2022-12-10T13:35:26;2.40;99.90
16283;DHT22;8249;48.708;9.030;2022-12-10T13:37:55;2.40;99.90
16283;DHT22;8249;48.708;9.030;2022-12-10T13:40:25;2.30;99.90
16283;DHT22;8249;48.708;9.030;2022-12-10T13:42:59;2.30;99.90
16283;DHT22;8249;48.708;9.030;2022-12-10T13:46:30;2.30;99.90
16283;DHT22;8249;48.708;9.030;2022-12-10T13:48:59;2.20;99.90
16283;DHT22;8249;48.708;9.030;2022-12-10T13:51:39;2.30;99.90
16283;DHT22;8249;48.708;9.030;2022-12-10T13:57:16;2.30;99.90
16283;DHT22;8249;48.708;9.030;2022-12-10T13:59:49;2.20;99.90
16283;DHT22;8249;48.708;9.030;2022-12-10T14:02:36;2.20;99.90
16283;DHT22;8249;48.708;9.030;2022-12-10T14:05:21;2.10;99.90
16283;DHT22;8249;48.708;9.030;2022-12-10T14:07:52;2.10;99.90
16283;DHT22;8249;48.708;9.030;2022-12-10T14:10:27;2.00;99.90
16283;DHT22;8249;48.708;9.030;2022-12-10T14:12:59;2.00;99.90
16283;DHT22;8249;48.708;9.030;2022-12-10T14:15:31;1.90;99.90
16283;DHT22;8249;48.708;9.030;2022-12-10T14:18:03;1.90;99.90
16283;DHT22;8249;48.708;9.030;2022-12-10T14:20:32;1.90;99.90
16283;DHT22;8249;48.708;9.030;2022-12-10T14:23:04;1.80;99.90
16283;DHT22;8249;48.708;9.030;2022-12-10T14:25:51;1.80;99.90
16283;DHT22;8249;48.708;9.030;2022-12-10T14:28:19;1.80;99.90
16283;DHT22;8249;48.708;9.030;2022-12-10T14:30:49;1.70;99.90
16283;DHT22;8249;48.708;9.030;2022-12-10T14:33:20;1.80;99.90
16283;DHT22;8249;48.708;9.030;2022-12-10T14:35:48;1.70;99.90
16283;DHT22;8249;48.708;9.030;2022-12-10T14:38:18;1.70;99.90
16283;DHT22;8249;48.708;9.030;2022-12-10T14:40:47;1.60;99.90
16283;DHT22;8249;48.708;9.030;2022-12-10T14:43:17;1.60;99.90
16283;DHT22;8249;48.708;9.030;2022-12-10T14:45:48;1.60;99.90
16283;DHT22;8249;48.708;9.030;2022-12-10T14:48:17;1.50;99.90
16283;DHT22;8249;48.708;9.030;2022-12-10T14:50:46;1.50;99.90
16283;DHT22;8249;48.708;9.030;2022-12-10T14:53:15;1.50;99.90
16283;DHT22;8249;48.708;9.030;2022-12-10T14:55:43;1.40;99.90
16283;DHT22;8249;48.708;9.030;2022-12-10T14:58:16;1.50;99.90
16283;DHT22;8249;48.708;9.030;2022-12-10T15:00:45;1.40;99.90
16283;DHT22;8249;48.708;9.030;2022-12-10T15:03:23;1.50;99.90
16283;DHT22;8249;48.708;9.030;2022-12-10T15:05:55;1.40;99.90
16283;DHT22;8249;48.708;9.030;2022-12-10T15:08:23;1.30;99.90
16283;DHT22;8249;48.708;9.030;2022-12-10T15:10:55;1.30;99.90
16283;DHT22;8249;48.708;9.030;2022-12-10T15:13:27;1.20;99.90
16283;DHT22;8249;48.708;9.030;2022-12-10T15:15:56;1.20;99.90
16283;DHT22;8249;48.708;9.030;2022-12-10T15:18:30;1.20;99.90
16283;DHT22;8249;48.708;9.030;2022-12-10T15:21:05;1.20;99.90
16283;DHT22;8249;48.708;9.030;2022-12-10T15:23:36;1.20;99.90
16283;DHT22;8249;48.708;9.030;2022-12-10T15:26:15;1.20;99.90
16283;DHT22;8249;48.708;9.030;2022-12-10T15:28:44;1.20;99.90
16283;DHT22;8249;48.708;9.030;2022-12-10T15:31:15;1.10;99.90
16283;DHT22;8249;48.708;9.030;2022-12-10T15:33:48;1.10;99.90
16283;DHT22;8249;48.708;9.030;2022-12-10T15:36:25;1.00;99.90
16283;DHT22;8249;48.708;9.030;2022-12-10T15:38:54;1.10;99.90
16283;DHT22;8249;48.708;9.030;2022-12-10T15:41:30;1.00;99.90
16283;DHT22;8249;48.708;9.030;2022-12-10T15:44:01;1.00;99.90
16283;DHT22;8249;48.708;9.030;2022-12-10T15:46:29;1.00;99.90
16283;DHT22;8249;48.708;9.030;2022-12-10T15:48:58;0.90;99.90
16283;DHT22;8249;48.708;9.030;2022-12-10T15:51:25;0.90;99.90
16283;DHT22;8249;48.708;9.030;2022-12-10T15:53:52;0.90;99.90
16283;DHT22;8249;48.708;9.030;2022-12-10T15:56:19;0.80;99.90
16283;DHT22;8249;48.708;9.030;2022-12-10T15:58:46;0.80;99.90
16283;DHT22;8249;48.708;9.030;2022-12-10T16:01:14;0.80;99.90
16283;DHT22;8249;48.708;9.030;2022-12-10T16:03:42;0.80;99.90
16283;DHT22;8249;48.708;9.030;2022-12-10T16:06:11;0.80;99.90
16283;DHT22;8249;48.708;9.030;2022-12-10T16:08:38;0.80;99.90
16283;DHT22;8249;48.708;9.030;2022-12-10T16:11:12;0.80;99.90
16283;DHT22;8249;48.708;9.030;2022-12-10T16:13:48;0.80;99.90
16283;DHT22;8249;48.708;9.030;2022-12-10T16:16:15;0.80;99.90
16283;DHT22;8249;48.708;9.030;2022-12-10T16:18:43;0.70;99.90
16283;DHT22;8249;48.708;9.030;2022-12-10T16:21:11;0.70;99.90
16283;DHT22;8249;48.708;9.030;2022-12-10T16:23:39;0.60;99.90
16283;DHT22;8249;48.708;9.030;2022-12-10T16:26:13;0.60;99.90
16283;DHT22;8249;48.708;9.030;2022-12-10T16:28:42;0.50;99.90
16283;DHT22;8249;48.708;9.030;2022-12-10T16:31:12;0.60;99.90
16283;DHT22;8249;48.708;9.030;2022-12-10T16:33:40;0.50;99.90
16283;DHT22;8249;48.708;9.030;2022-12-10T16:36:09;0.50;99.90